Time;durP1;ratioP1;P1;durP2;ratioP2;P2;SDS_P1;SDS_P2;PMS_P1;PMS_P2;Temp;Humidity;BMP_temperature;BMP_pressure;BME280_temperature;BME280_humidity;BME280_pressure;Samples;Min_cycle;Max_cycle;Signal;HPM_P1;HPM_P2
2024/02/08 00:01:39;;;;;;;12.20;5.40;;;;;;;-1.52;100.00;100569.06;5053992;28;20440;-84
2024/02/08 00:04:05;;;;;;;11.00;5.63;;;;;;;-1.54;100.00;100569.13;5060628;28;20056;-84
2024/02/08 00:06:31;;;;;;;12.23;5.35;;;;;;;-1.50;100.00;100588.94;5068434;28;20394;-82
2024/02/08 00:09:00;;;;;;;12.93;5.68;;;;;;;-1.48;100.00;100581.94;5065166;28;20037;-84
2024/02/08 00:11:27;;;;;;;15.05;6.25;;;;;;;-1.50;100.00;100575.91;5065441;28;20032;-83
2024/02/08 00:13:52;;;;;;;11.57;5.38;;;;;;;-1.51;100.00;100573.38;5065000;28;20040;-83
2024/02/08 00:16:17;;;;;;;15.60;5.90;;;;;;;-1.55;100.00;100574.41;5064037;28;20440;-83
2024/02/08 00:18:44;;;;;;;12.20;6.10;;;;;;;-1.57;100.00;100573.63;5062845;28;20075;-83
2024/02/08 00:21:10;;;;;;;10.18;5.47;;;;;;;-1.54;100.00;100581.34;5064483;28;20069;-83
2024/02/08 00:23:36;;;;;;;14.10;6.13;;;;;;;-1.56;100.00;100575.34;5060932;28;20489;-82
2024/02/08 00:26:02;;;;;;;15.68;6.25;;;;;;;-1.59;100.00;100563.28;5054724;28;20049;-82
2024/02/08 00:28:28;;;;;;;9.82;6.07;;;;;;;-1.63;100.00;100566.91;5053676;28;20174;-83
2024/02/08 00:30:54;;;;;;;12.98;5.70;;;;;;;-1.64;100.00;100557.44;5053489;28;20037;-82
2024/02/08 00:33:20;;;;;;;10.00;6.07;;;;;;;-1.63;100.00;100553.88;5052013;28;20513;-82
2024/02/08 00:35:45;;;;;;;10.95;5.80;;;;;;;-1.63;100.00;100553.88;5053152;28;20068;-83
2024/02/08 00:38:10;;;;;;;14.73;6.47;;;;;;;-1.63;100.00;100557.34;5052574;28;20040;-83
2024/02/08 00:40:36;;;;;;;20.00;8.10;;;;;;;-1.60;100.00;100556.34;5053246;28;20115;-83
2024/02/08 00:43:06;;;;;;;15.80;7.05;;;;;;;-1.56;100.00;100560.53;5053273;28;20036;-82
2024/02/08 00:45:33;;;;;;;15.90;8.05;;;;;;;-1.50;100.00;100559.41;5052856;28;20029;-83
2024/02/08 00:47:59;;;;;;;15.32;7.57;;;;;;;-1.50;100.00;100560.25;5053869;28;20036;-82
2024/02/08 00:50:25;;;;;;;15.05;7.22;;;;;;;-1.47;100.00;100554.06;5052424;28;20467;-82
2024/02/08 00:52:52;;;;;;;13.85;7.25;;;;;;;-1.45;100.00;100557.44;5052560;28;20025;-83
2024/02/08 00:55:18;;;;;;;14.93;7.07;;;;;;;-1.43;100.00;100556.44;5053345;28;20052;-82
2024/02/08 00:57:43;;;;;;;16.08;7.75;;;;;;;-1.38;100.00;100556.25;5056699;28;20483;-83
2024/02/08 01:00:10;;;;;;;11.63;6.68;;;;;;;-1.35;100.00;100552.66;5056386;28;20443;-82
2024/02/08 01:02:35;;;;;;;13.75;6.68;;;;;;;-1.32;100.00;100545.50;5056316;28;20041;-82
2024/02/08 01:05:01;;;;;;;11.73;6.22;;;;;;;-1.30;100.00;100548.06;5056487;28;20040;-82
2024/02/08 01:07:27;;;;;;;9.98;6.38;;;;;;;-1.27;100.00;100546.16;5056171;28;20092;-82
2024/02/08 01:09:52;;;;;;;15.73;6.05;;;;;;;-1.23;100.00;100544.25;5054970;28;20493;-82
2024/02/08 01:12:19;;;;;;;13.57;6.07;;;;;;;-1.17;100.00;100548.34;5056398;28;20473;-82
2024/02/08 01:14:48;;;;;;;12.20;6.57;;;;;;;-1.17;100.00;100557.03;5055924;28;20067;-82
2024/02/08 01:17:14;;;;;;;15.25;6.97;;;;;;;-1.15;100.00;100568.25;5056423;28;20032;-83
2024/02/08 01:19:40;;;;;;;13.82;6.93;;;;;;;-1.11;100.00;100564.56;5055053;28;20079;-81
2024/02/08 01:22:06;;;;;;;12.20;6.45;;;;;;;-1.10;100.00;100553.22;5055804;28;20037;-83
2024/02/08 01:24:31;;;;;;;10.35;6.55;;;;;;;-1.08;100.00;100553.13;5055929;28;20021;-82
2024/02/08 01:26:57;;;;;;;12.40;6.18;;;;;;;-1.04;100.00;100539.03;5054585;28;20052;-83
2024/02/08 01:29:24;;;;;;;18.52;6.80;;;;;;;-0.99;100.00;100546.63;5055557;28;20037;-83
2024/02/08 01:31:50;;;;;;;19.73;7.20;;;;;;;-0.93;100.00;100539.34;5055592;28;20037;-82
2024/02/08 01:34:15;;;;;;;14.90;7.10;;;;;;;-0.85;100.00;100532.91;5055565;28;20064;-82
2024/02/08 01:36:41;;;;;;;15.15;6.88;;;;;;;-0.82;100.00;100533.63;5055154;28;20494;-82
2024/02/08 01:39:12;;;;;;;15.65;7.43;;;;;;;-0.80;100.00;100528.34;5056011;28;20056;-83
2024/02/08 01:41:37;;;;;;;15.23;6.85;;;;;;;-0.78;100.00;100527.31;5055782;28;20482;-83
2024/02/08 01:44:04;;;;;;;17.48;8.40;;;;;;;-0.75;100.00;100524.59;5055694;28;20033;-82
2024/02/08 01:46:38;;;;;;;16.70;7.93;;;;;;;-0.71;100.00;100535.72;5054465;28;20029;-83
2024/02/08 01:49:05;;;;;;;17.65;7.43;;;;;;;-0.66;100.00;100535.50;5055992;28;20116;-83
2024/02/08 01:51:31;;;;;;;17.88;8.18;;;;;;;-0.65;100.00;100537.19;5055282;28;20111;-83
2024/02/08 01:54:01;;;;;;;13.55;7.68;;;;;;;-0.63;100.00;100535.34;5055099;28;20059;-83
2024/02/08 01:56:27;;;;;;;13.48;7.90;;;;;;;-0.62;100.00;100537.88;5055075;28;20040;-82
2024/02/08 01:58:54;;;;;;;19.48;7.53;;;;;;;-0.61;100.00;100542.19;5055054;28;20036;-82
2024/02/08 02:01:22;;;;;;;19.80;7.80;;;;;;;-0.59;100.00;100542.13;5055361;28;20029;-82
2024/02/08 02:03:48;;;;;;;14.05;7.47;;;;;;;-0.58;100.00;100546.44;5055106;28;20091;-82
2024/02/08 02:06:14;;;;;;;15.85;7.80;;;;;;;-0.56;100.00;100544.59;5054812;28;20044;-83
2024/02/08 02:08:42;;;;;;;21.73;7.75;;;;;;;-0.56;100.00;100532.34;5054524;28;20037;-83
2024/02/08 02:11:40;;;;;;;19.60;8.07;;;;;;;-0.56;100.00;100524.50;5053541;28;20029;-82
2024/02/08 02:14:06;;;;;;;16.67;8.18;;;;;;;-0.54;100.00;100514.84;5055440;28;20033;-83
2024/02/08 02:16:32;;;;;;;17.42;8.20;;;;;;;-0.51;100.00;100520.84;5054898;28;20033;-82
2024/02/08 02:18:57;;;;;;;19.23;7.80;;;;;;;-0.50;100.00;100525.16;5054752;28;20488;-82
2024/02/08 02:21:23;;;;;;;19.63;7.95;;;;;;;-0.49;100.00;100530.31;5053756;28;20040;-82
2024/02/08 02:23:52;;;;;;;17.92;8.27;;;;;;;-0.50;100.00;100522.53;5054427;28;20029;-82
2024/02/08 02:26:18;;;;;;;19.33;7.55;;;;;;;-0.49;100.00;100519.84;5053592;28;20044;-84
2024/02/08 02:28:44;;;;;;;19.95;8.30;;;;;;;-0.49;100.00;100512.00;5054746;28;20025;-83
2024/02/08 02:31:13;;;;;;;12.90;7.30;;;;;;;-0.48;100.00;100513.66;5054372;28;20117;-82
2024/02/08 02:33:40;;;;;;;15.52;8.23;;;;;;;-0.46;100.00;100513.59;5053245;28;20045;-82
2024/02/08 02:36:07;;;;;;;20.67;7.90;;;;;;;-0.46;100.00;100518.81;5053391;28;20107;-81
2024/02/08 02:38:35;;;;;;;18.90;7.95;;;;;;;-0.48;100.00;100503.22;5054353;28;20060;-83
2024/02/08 02:41:06;;;;;;;16.42;8.13;;;;;;;-0.45;100.00;100516.16;5054399;28;20036;-82
2024/02/08 02:43:32;;;;;;;;;;;;;;;-0.44;100.00;100511.78;5054915;28;20079;-82
2024/02/08 02:45:58;;;;;;;17.25;7.13;;;;;;;-0.44;100.00;100517.00;5052828;28;19963;-82
2024/02/08 02:48:24;;;;;;;12.68;7.07;;;;;;;-0.46;100.00;100501.38;5054532;28;20058;-82
2024/02/08 02:50:51;;;;;;;18.67;8.25;;;;;;;-0.47;100.00;100499.69;5054722;28;20108;-83
2024/02/08 02:53:17;;;;;;;19.63;8.38;;;;;;;-0.48;100.00;100498.00;5054741;28;20033;-82
2024/02/08 02:55:43;;;;;;;18.23;8.35;;;;;;;-0.49;100.00;100501.53;5054063;28;20487;-83
2024/02/08 02:58:08;;;;;;;18.67;7.82;;;;;;;-0.48;100.00;100503.22;5053788;28;20037;-82
2024/02/08 03:00:34;;;;;;;13.40;7.70;;;;;;;-0.46;100.00;100496.16;5054110;28;20037;-82
2024/02/08 03:03:07;;;;;;;16.48;8.27;;;;;;;-0.44;100.00;100489.06;5053851;28;20037;-83
2024/02/08 03:05:36;;;;;;;19.85;8.43;;;;;;;-0.42;100.00;100483.78;5054240;28;20033;-82
2024/02/08 03:08:05;;;;;;;20.95;8.50;;;;;;;-0.42;100.00;100476.78;5054145;28;20021;-82
2024/02/08 03:10:31;;;;;;;21.80;8.98;;;;;;;-0.39;100.00;100479.25;5052550;28;20037;-82
2024/02/08 03:12:57;;;;;;;17.67;8.20;;;;;;;-0.40;100.00;100472.31;5053806;28;20032;-83
2024/02/08 03:15:23;;;;;;;14.60;8.98;;;;;;;-0.35;100.00;100477.31;5054130;28;20174;-83
2024/02/08 03:17:49;;;;;;;19.25;8.93;;;;;;;-0.33;100.00;100470.22;5053440;28;20402;-83
2024/02/08 03:20:23;;;;;;;21.23;8.88;;;;;;;-0.32;100.00;100461.47;5053741;28;20068;-83
2024/02/08 03:22:52;;;;;;;22.65;9.25;;;;;;;-0.30;100.00;100466.63;5054156;28;20083;-83
2024/02/08 03:25:19;;;;;;;17.17;8.75;;;;;;;-0.28;100.00;100467.41;5052320;28;20029;-83
2024/02/08 03:27:44;;;;;;;18.33;9.50;;;;;;;-0.28;100.00;100467.41;5053605;28;20028;-83
2024/02/08 03:30:19;;;;;;;22.40;10.55;;;;;;;-0.29;100.00;100461.31;5053134;28;20087;-82
2024/02/08 03:32:55;;;;;;;17.35;9.15;;;;;;;-0.27;100.00;100463.84;5052274;28;20041;-82
2024/02/08 03:35:25;;;;;;;18.67;9.32;;;;;;;-0.29;100.00;100471.78;5053682;28;20111;-83
2024/02/08 03:37:52;;;;;;;21.05;9.43;;;;;;;-0.29;100.00;100479.63;5052721;28;20037;-82
2024/02/08 03:40:20;;;;;;;19.23;9.82;;;;;;;-0.28;100.00;100476.09;5053513;28;20025;-83
2024/02/08 03:42:49;;;;;;;21.55;10.38;;;;;;;-0.28;100.00;100472.63;5053545;28;20059;-83
2024/02/08 03:45:27;;;;;;;23.00;10.43;;;;;;;-0.28;100.00;100470.03;5053954;28;20343;-83
2024/02/08 03:47:57;;;;;;;14.57;8.88;;;;;;;-0.27;100.00;100458.63;5052988;28;20128;-83
2024/02/08 03:50:24;;;;;;;18.55;9.13;;;;;;;-0.26;100.00;100450.69;5052635;28;20120;-83
2024/02/08 03:52:50;;;;;;;20.55;9.18;;;;;;;-0.24;100.00;100448.00;5053327;28;20433;-83
2024/02/08 03:55:16;;;;;;;19.92;10.02;;;;;;;-0.23;100.00;100434.00;5053500;28;20087;-83
2024/02/08 03:57:45;;;;;;;22.48;10.05;;;;;;;-0.23;100.00;100431.38;5054013;28;20344;-83
2024/02/08 04:00:13;;;;;;;12.95;8.93;;;;;;;-0.23;100.00;100428.78;5053492;28;20036;-83
2024/02/08 04:02:43;;;;;;;24.70;10.52;;;;;;;-0.22;100.00;100422.63;5051946;28;20483;-84
2024/02/08 04:05:19;;;;;;;17.90;10.13;;;;;;;-0.20;100.00;100418.16;5052010;28;20128;-83
2024/02/08 04:07:56;;;;;;;18.48;9.55;;;;;;;-0.21;100.00;100411.22;5053786;28;20186;-83
2024/02/08 04:53:30;;;;;;;26.00;11.20;;;;;;;-0.22;100.00;100404.31;5054132;28;20092;-83
2024/02/08 04:54:16;;;;;;;27.95;10.95;;;;;;;-0.51;100.00;100424.97;5054774;28;20469;-76
2024/02/08 04:56:42;;;;;;;24.83;12.15;;;;;;;-0.47;100.00;100407.38;5054617;28;20067;-76
2024/02/08 04:59:08;;;;;;;21.80;11.93;;;;;;;-0.44;100.00;100409.81;5054490;28;20135;-77
2024/02/08 05:01:38;;;;;;;20.15;12.82;;;;;;;-0.39;100.00;100407.81;5054445;28;20025;-77
2024/02/08 05:04:06;;;;;;;26.40;13.73;;;;;;;-0.34;100.00;100404.94;5054454;28;20079;-76
2024/02/08 05:06:35;;;;;;;24.60;12.35;;;;;;;-0.31;100.00;100394.31;5052871;28;20040;-76
2024/02/08 05:09:00;;;;;;;34.00;14.57;;;;;;;-0.26;100.00;100402.78;5053026;28;20043;-76
2024/02/08 05:11:28;;;;;;;35.70;15.55;;;;;;;-0.22;100.00;100399.09;5054443;28;20386;-75
2024/02/08 05:14:00;;;;;;;29.88;14.57;;;;;;;-0.18;100.00;100405.84;5052760;28;20037;-75
2024/02/08 05:16:26;;;;;;;26.17;13.90;;;;;;;-0.13;100.00;100403.00;5054319;28;20029;-75
2024/02/08 05:18:53;;;;;;;24.10;14.40;;;;;;;-0.11;100.00;100401.13;5054113;28;20061;-75
2024/02/08 05:21:19;;;;;;;24.92;13.55;;;;;;;-0.07;100.00;100394.81;5054637;28;20127;-75
2024/02/08 05:23:47;;;;;;;33.15;14.55;;;;;;;-0.04;100.00;100398.09;5054109;28;20496;-77
2024/02/08 05:26:19;;;;;;;23.10;14.82;;;;;;;-0.01;100.00;100389.25;5052908;28;20039;-76
2024/02/08 05:28:48;;;;;;;42.38;15.80;;;;;;;0.04;100.00;100386.41;5054345;28;20033;-76
2024/02/08 05:31:16;;;;;;;32.35;16.30;;;;;;;0.07;100.00;100381.00;5053907;28;20033;-75
2024/02/08 05:33:42;;;;;;;34.60;14.90;;;;;;;0.11;100.00;100390.38;5052580;28;20033;-76
2024/02/08 05:36:12;;;;;;;30.05;15.95;;;;;;;0.14;100.00;100392.81;5054053;28;20328;-76
2024/02/08 05:38:40;;;;;;;36.53;16.65;;;;;;;0.15;100.00;100390.13;5053696;28;20079;-75
2024/02/08 05:41:07;;;;;;;28.00;15.00;;;;;;;0.15;100.00;100390.13;5053733;28;20033;-74
2024/02/08 05:43:44;;;;;;;29.20;15.10;;;;;;;0.16;100.00;100385.72;5053755;28;20032;-76
2024/02/08 05:46:10;;;;;;;33.38;15.70;;;;;;;0.18;100.00;100391.75;5054086;28;20029;-76
2024/02/08 05:48:39;;;;;;;35.75;15.52;;;;;;;0.17;100.00;100382.19;5053991;28;20516;-74
2024/02/08 05:51:11;;;;;;;28.83;15.68;;;;;;;0.19;100.00;100379.50;5053604;28;20128;-76
2024/02/08 05:53:40;;;;;;;27.85;15.07;;;;;;;0.21;100.00;100383.72;5053666;28;20036;-76
2024/02/08 05:56:08;;;;;;;35.25;17.67;;;;;;;0.21;100.00;100391.56;5052220;28;20037;-77
2024/02/08 05:58:37;;;;;;;32.60;17.00;;;;;;;0.20;100.00;100368.94;5054123;28;20474;-76
2024/02/08 06:01:16;;;;;;;32.85;18.05;;;;;;;0.22;100.00;100361.00;5053816;28;20037;-76
2024/02/08 06:03:44;;;;;;;30.52;16.92;;;;;;;0.22;100.00;100353.97;5052527;28;20051;-75
2024/02/08 06:06:16;;;;;;;29.92;16.95;;;;;;;0.25;100.00;100347.75;5053342;28;20116;-76
2024/02/08 06:08:42;;;;;;;38.83;18.05;;;;;;;0.25;100.00;100342.50;5053273;28;20471;-76
2024/02/08 06:11:23;;;;;;;40.42;19.02;;;;;;;0.25;100.00;100335.50;5051857;28;20033;-76
2024/02/08 06:13:58;;;;;;;40.15;18.83;;;;;;;0.28;100.00;100335.31;5053127;28;20025;-76
2024/02/08 06:16:42;;;;;;;33.15;17.45;;;;;;;0.30;100.00;100327.38;5052044;28;20056;-77
2024/02/08 06:19:08;;;;;;;33.00;17.60;;;;;;;0.30;100.00;100312.53;5052970;28;20068;-76
2024/02/08 06:21:40;;;;;;;41.30;18.40;;;;;;;0.32;100.00;100307.22;5051427;28;20422;-76
2024/02/08 06:24:29;;;;;;;32.15;16.65;;;;;;;0.33;100.00;100312.38;5052446;28;20052;-76
2024/02/08 06:27:01;;;;;;;29.55;17.27;;;;;;;0.33;100.00;100304.53;5053821;28;20028;-76
2024/02/08 06:29:38;;;;;;;32.80;16.20;;;;;;;0.35;100.00;100297.41;5052847;28;20025;-76
2024/02/08 06:32:23;;;;;;;35.67;17.05;;;;;;;0.36;100.00;100306.13;5052829;28;20036;-76
2024/02/08 06:34:55;;;;;;;35.10;18.48;;;;;;;0.35;100.00;100299.19;5051802;28;20502;-76
2024/02/08 06:37:28;;;;;;;31.25;18.20;;;;;;;0.34;100.00;100300.13;5052761;28;20075;-77
2024/02/08 06:39:57;;;;;;;37.50;17.20;;;;;;;0.34;100.00;100298.38;5053111;28;20193;-76
2024/02/08 06:42:44;;;;;;;28.98;16.25;;;;;;;0.33;100.00;100309.75;5052508;28;20040;-76
2024/02/08 06:45:25;;;;;;;36.17;15.82;;;;;;;0.31;100.00;100295.91;5052493;28;20052;-77
2024/02/08 06:47:54;;;;;;;32.08;16.35;;;;;;;0.31;100.00;100298.53;5052923;28;20355;-76
2024/02/08 07:39:34;;;;;;;52.63;15.88;;;;;;;0.75;100.00;100239.31;5052000;28;20043;-77
2024/02/08 07:42:12;;;;;;;53.55;15.23;;;;;;;0.81;100.00;100238.94;5052147;28;20108;-77
2024/02/08 07:44:39;;;;;;;57.95;18.10;;;;;;;0.87;100.00;100237.72;5052084;28;20024;-76
2024/02/08 07:47:12;;;;;;;51.28;16.38;;;;;;;0.94;100.00;100236.44;5051494;28;20481;-77
2024/02/08 07:49:44;;;;;;;56.95;16.65;;;;;;;0.99;100.00;100236.16;5052126;28;20048;-76
2024/02/08 07:52:19;;;;;;;;;;;;;;;1.06;100.00;100234.84;5052739;28;20043;-76
2024/02/08 07:54:56;;;;;;;49.78;15.07;;;;;;;1.10;100.00;100238.94;5051595;28;20346;-77
2024/02/08 07:57:26;;;;;;;43.83;15.23;;;;;;;1.15;100.00;100242.16;5051598;28;20037;-76
2024/02/08 07:59:53;;;;;;;58.45;17.67;;;;;;;1.19;100.00;100234.94;5051513;28;20056;-76
2024/02/08 08:02:23;;;;;;;45.95;15.65;;;;;;;1.24;100.00;100238.13;5051566;28;20204;-76
2024/02/08 08:04:51;;;;;;;53.30;16.50;;;;;;;1.29;100.00;100222.13;5051438;28;20033;-76
2024/02/08 08:07:23;;;;;;;50.03;15.38;;;;;;;1.34;100.00;100218.25;5054724;28;20078;-75
2024/02/08 08:09:59;;;;;;;;;;;;;;;1.36;100.00;100211.16;5055621;28;20471;-75
2024/02/08 08:12:29;;;;;;;42.28;13.85;;;;;;;1.40;100.00;100204.78;5055860;28;19975;-77
2024/02/08 08:15:13;;;;;;;45.00;16.73;;;;;;;1.43;100.00;100200.28;5056439;28;20060;-76
2024/02/08 08:17:42;;;;;;;47.55;12.73;;;;;;;1.46;100.00;100207.94;5055376;28;20510;-77
2024/02/08 08:22:59;;;;;;;39.38;13.18;;;;;;;1.46;100.00;100194.84;5056476;28;20115;-75
2024/02/08 08:25:59;;;;;;;29.98;12.10;;;;;;;1.52;100.00;100191.84;5055536;28;20036;-76
2024/02/08 08:28:39;;;;;;;36.05;11.77;;;;;;;1.56;100.00;100177.59;5056205;28;20044;-75
2024/02/08 08:31:35;;;;;;;34.00;11.10;;;;;;;1.60;100.00;100171.22;5056523;28;20033;-75
2024/02/08 08:33:59;;;;;;;39.53;9.05;;;;;;;1.64;100.00;100174.47;5055527;28;20072;-76
2024/02/08 08:36:28;;;;;;;35.97;9.80;;;;;;;1.67;100.00;100164.66;5055105;28;20044;-74
2024/02/08 08:39:29;;;;;;;29.27;8.93;;;;;;;1.70;100.00;100161.84;5055215;28;20119;-75
2024/02/08 08:41:45;;;;;;;31.48;8.60;;;;;;;1.74;100.00;100150.19;5054738;28;20068;-75
2024/02/08 08:44:10;;;;;;;34.40;7.97;;;;;;;1.77;100.00;100142.09;5053913;28;20037;-75
2024/02/08 08:46:37;;;;;;;31.10;7.45;;;;;;;1.80;100.00;100148.13;5054006;28;20025;-76
2024/02/08 08:49:03;;;;;;;24.90;7.70;;;;;;;1.86;100.00;100137.22;5053549;28;20036;-75
2024/02/08 08:51:30;;;;;;;28.10;7.32;;;;;;;1.88;100.00;100125.69;5054665;28;20033;-74
2024/02/08 08:54:13;;;;;;;20.65;6.80;;;;;;;1.96;100.00;100132.19;5053444;28;20032;-76
2024/02/08 08:56:40;;;;;;;16.67;6.00;;;;;;;1.96;100.00;100122.56;5055468;28;20048;-75
2024/02/08 08:59:06;;;;;;;20.65;6.18;;;;;;;2.00;100.00;100112.69;5054575;28;20029;-75
2024/02/08 09:01:36;;;;;;;24.30;6.82;;;;;;;2.04;100.00;100109.75;5054349;28;20513;-76
2024/02/08 09:04:25;;;;;;;25.80;7.18;;;;;;;2.11;100.00;100107.56;5055174;28;20112;-75
2024/02/08 09:06:51;;;;;;;21.33;6.32;;;;;;;2.18;100.00;100116.72;5054425;28;20033;-75
2024/02/08 09:09:28;;;;;;;22.20;6.28;;;;;;;2.22;100.00;100112.94;5053041;28;20133;-76
2024/02/08 09:12:00;;;;;;;28.52;6.70;;;;;;;2.27;100.00;100112.66;5054425;28;20037;-76
2024/02/08 09:14:32;;;;;;;21.75;6.60;;;;;;;2.32;100.00;100113.16;5054649;28;20103;-76
2024/02/08 09:16:58;;;;;;;34.72;7.40;;;;;;;2.33;100.00;100109.59;5054089;28;20060;-76
2024/02/08 09:19:32;;;;;;;20.83;6.13;;;;;;;2.36;100.00;100119.91;5054427;28;20183;-76
2024/02/08 09:21:59;;;;;;;24.05;6.03;;;;;;;2.40;100.00;100116.09;5054330;28;20036;-75
2024/02/08 09:24:26;;;;;;;19.08;5.43;;;;;;;2.38;100.00;100107.50;5054260;28;20029;-74
2024/02/08 09:29:38;;;;;;;22.08;4.40;;;;;;;2.33;100.00;100096.47;5054020;28;20383;-75
2024/02/08 09:32:18;;;;;;;19.77;4.47;;;;;;;2.33;100.00;100093.84;5054518;28;20033;-74
2024/02/08 09:34:46;;;;;;;23.52;5.20;;;;;;;2.35;100.00;100086.69;5054450;28;20060;-75
2024/02/08 09:37:11;;;;;;;22.27;4.57;;;;;;;2.40;100.00;100083.75;5055164;28;20036;-73
2024/02/08 09:42:27;;;;;;;25.42;5.15;;;;;;;2.51;100.00;100067.25;5055011;28;20036;-76
2024/02/08 09:45:13;;;;;;;20.95;4.35;;;;;;;2.51;100.00;100062.88;5055166;28;20029;-73
2024/02/08 09:47:52;;;;;;;14.18;3.92;;;;;;;2.45;100.00;100050.16;5055101;28;20177;-76
2024/02/08 09:50:49;;;;;;;15.88;4.32;;;;;;;2.48;100.00;100044.69;5054554;28;20029;-75
2024/02/08 09:53:30;;;;;;;15.70;4.40;;;;;;;2.51;100.00;100039.22;5054022;28;20116;-75
2024/02/08 09:56:15;;;;;;;14.95;3.80;;;;;;;2.50;100.00;100026.19;5053714;28;20025;-76
2024/02/08 09:58:46;;;;;;;17.80;3.90;;;;;;;2.50;100.00;100021.78;5054454;28;20485;-76
2024/02/08 10:01:21;;;;;;;25.42;6.05;;;;;;;2.49;100.00;100012.22;5055163;28;20127;-77
2024/02/08 10:04:14;;;;;;;15.75;4.55;;;;;;;2.50;100.00;100002.56;5055294;28;20028;-80
2024/02/08 10:09:36;;;;;;;23.77;4.80;;;;;;;2.60;100.00;99988.69;5054635;28;20083;-77
2024/02/08 10:12:11;;;;;;;16.13;4.40;;;;;;;2.60;100.00;99978.16;5054964;28;20475;-79
2024/02/08 10:14:42;;;;;;;22.17;5.28;;;;;;;2.62;100.00;99975.44;5054169;28;20071;-77
2024/02/08 10:17:24;;;;;;;28.63;6.50;;;;;;;2.64;100.00;99984.03;5054222;28;20021;-75
2024/02/08 10:20:31;;;;;;;18.73;4.60;;;;;;;2.57;100.00;99999.41;5054464;28;20435;-76
2024/02/08 10:22:53;;;;;;;20.33;4.55;;;;;;;2.53;100.00;99992.69;5053443;28;20423;-74
2024/02/08 10:28:08;;;;;;;16.85;4.72;;;;;;;2.47;100.00;99977.34;5052846;28;20102;-74
2024/02/08 10:30:36;;;;;;;12.18;3.97;;;;;;;2.49;100.00;99970.19;5053298;28;20393;-74
2024/02/08 10:33:05;;;;;;;17.45;5.10;;;;;;;2.51;100.00;99972.72;5053282;28;20036;-75
2024/02/08 10:35:39;;;;;;;14.85;4.68;;;;;;;2.49;100.00;99970.19;5053494;28;20041;-75
2024/02/08 10:38:32;;;;;;;13.90;5.13;;;;;;;2.48;100.00;99973.78;5053916;28;20102;-75
2024/02/08 10:40:58;;;;;;;20.80;4.90;;;;;;;2.50;100.00;99964.00;5053410;28;20115;-76
2024/02/08 10:43:25;;;;;;;14.35;4.65;;;;;;;2.45;100.00;99971.38;5053671;28;20463;-76
2024/02/08 10:46:02;;;;;;;19.25;5.63;;;;;;;2.37;100.00;100005.19;5053514;28;20065;-75
2024/02/08 10:48:29;;;;;;;23.95;5.78;;;;;;;2.30;100.00;100023.19;5053937;28;20107;-76
2024/02/08 10:51:02;;;;;;;14.77;5.18;;;;;;;2.23;100.00;99998.28;5053899;28;20175;-76
2024/02/08 10:53:43;;;;;;;20.52;5.68;;;;;;;2.21;100.00;99968.66;5053649;28;20110;-76
2024/02/08 10:56:17;;;;;;;;;;;;;;;2.23;100.00;99964.16;5053597;28;20052;-75
2024/02/08 11:01:32;;;;;;;25.02;5.80;;;;;;;2.22;100.00;99988.72;5053662;28;20068;-75
2024/02/08 11:04:07;;;;;;;15.15;5.78;;;;;;;2.21;100.00;100006.28;5053272;28;20478;-76
2024/02/08 11:06:34;;;;;;;22.27;7.00;;;;;;;2.23;100.00;100007.00;5053756;28;20029;-75
2024/02/08 11:09:14;;;;;;;29.55;8.15;;;;;;;2.25;100.00;99997.22;5051908;28;20041;-76
2024/02/08 11:11:45;;;;;;;22.77;7.43;;;;;;;2.21;100.00;99985.28;5053509;28;20039;-76
2024/02/08 11:14:17;;;;;;;24.20;8.43;;;;;;;2.24;100.00;99974.56;5053955;28;20025;-76
2024/02/08 11:16:48;;;;;;;22.05;8.48;;;;;;;2.27;100.00;99969.09;5051891;28;20490;-77
2024/02/08 11:19:19;;;;;;;31.73;8.93;;;;;;;2.30;100.00;99957.53;5052826;28;20059;-76
2024/02/08 11:21:49;;;;;;;20.35;8.15;;;;;;;2.31;100.00;99946.06;5053944;28;20063;-76
2024/02/08 11:24:28;;;;;;;27.20;8.32;;;;;;;2.29;100.00;99938.31;5052375;28;20123;-76
2024/02/08 11:27:01;;;;;;;29.50;8.18;;;;;;;2.29;100.00;99919.94;5053118;28;20485;-76
2024/02/08 11:29:28;;;;;;;24.08;8.15;;;;;;;2.33;100.00;99903.97;5052746;28;20029;-81
2024/02/08 11:31:57;;;;;;;18.17;8.57;;;;;;;2.38;100.00;99902.69;5052971;28;20056;-76
2024/02/08 11:34:33;;;;;;;21.75;8.30;;;;;;;2.43;100.00;99891.84;5052859;28;20115;-75
2024/02/08 11:37:06;;;;;;;26.90;7.90;;;;;;;2.40;100.00;99874.53;5053266;28;20445;-76
2024/02/08 11:39:31;;;;;;;24.33;7.60;;;;;;;2.36;100.00;99872.25;5053254;28;20059;-76
2024/02/08 11:42:05;;;;;;;24.23;7.80;;;;;;;2.38;100.00;99862.50;5053607;28;20447;-76
2024/02/08 11:44:36;;;;;;;22.05;7.45;;;;;;;2.35;100.00;99863.53;5051828;28;20467;-77
2024/02/08 11:47:18;;;;;;;28.48;7.43;;;;;;;2.33;100.00;99854.94;5053083;28;20455;-76
2024/02/08 11:50:00;;;;;;;15.43;6.57;;;;;;;2.28;100.00;99851.78;5053065;28;20112;-76
2024/02/08 11:52:29;;;;;;;22.38;6.00;;;;;;;2.20;100.00;99851.53;5052589;28;20086;-76
2024/02/08 11:55:05;;;;;;;21.35;6.53;;;;;;;2.14;100.00;99838.84;5052550;28;20045;-76
2024/02/08 11:57:36;;;;;;;16.10;6.28;;;;;;;2.01;100.00;99829.19;5052794;28;20037;-78
2024/02/08 12:00:18;;;;;;;18.20;6.00;;;;;;;2.05;100.00;99833.28;5052657;28;20059;-77
2024/02/08 12:02:56;;;;;;;20.30;6.82;;;;;;;2.06;100.00;99821.00;5053404;28;20401;-76
2024/02/08 12:05:24;;;;;;;16.80;6.25;;;;;;;2.00;100.00;99822.28;5052645;28;20032;-76
2024/02/08 12:07:50;;;;;;;17.48;6.40;;;;;;;1.98;100.00;99810.22;5052653;28;20104;-77
2024/02/08 12:10:17;;;;;;;14.55;7.00;;;;;;;1.99;100.00;99806.66;5052587;28;20041;-76
2024/02/08 12:12:45;;;;;;;19.50;6.55;;;;;;;2.03;100.00;99801.06;5052747;28;20033;-76
2024/02/08 12:15:12;;;;;;;19.05;6.63;;;;;;;2.09;100.00;99808.50;5052162;28;20029;-78
2024/02/08 12:17:40;;;;;;;22.58;7.95;;;;;;;2.08;100.00;99806.00;5052566;28;20132;-76
2024/02/08 12:20:09;;;;;;;26.65;8.00;;;;;;;2.08;100.00;99795.50;5052436;28;20033;-77
2024/02/08 12:22:36;;;;;;;23.70;8.23;;;;;;;2.11;100.00;99790.84;5052630;28;20033;-77
2024/02/08 12:25:02;;;;;;;21.73;7.22;;;;;;;2.11;100.00;99782.97;5051230;28;20398;-75
2024/02/08 12:27:29;;;;;;;20.75;7.88;;;;;;;2.16;100.00;99766.06;5052852;28;20040;-76
2024/02/08 12:29:56;;;;;;;19.10;7.30;;;;;;;2.19;100.00;99764.03;5052278;28;20523;-77
2024/02/08 12:32:28;;;;;;;21.15;8.00;;;;;;;2.17;100.00;99759.88;5052663;28;20045;-76
2024/02/08 12:34:54;;;;;;;21.88;7.45;;;;;;;2.13;100.00;99761.03;5052401;28;20094;-76
2024/02/08 12:37:28;;;;;;;18.10;6.78;;;;;;;2.07;100.00;99759.69;5051947;28;20083;-77
2024/02/08 12:39:55;;;;;;;16.08;6.60;;;;;;;2.04;100.00;99758.13;5051384;28;20033;-78
2024/02/08 12:42:23;;;;;;;19.63;6.32;;;;;;;1.99;100.00;99746.31;5052333;28;20033;-78
2024/02/08 12:44:50;;;;;;;32.35;7.22;;;;;;;1.96;100.00;99736.00;5052282;28;20036;-77
2024/02/08 12:47:19;;;;;;;18.17;7.00;;;;;;;1.90;100.00;99732.88;5052206;28;20033;-77
2024/02/08 12:49:45;;;;;;;23.85;6.90;;;;;;;1.87;100.00;99719.16;5052486;28;20600;-77
2024/02/08 12:52:13;;;;;;;18.70;7.63;;;;;;;1.86;100.00;99707.00;5053155;28;20037;-78
2024/02/08 12:54:39;;;;;;;22.98;7.43;;;;;;;1.86;100.00;99691.25;5056032;28;20076;-79
2024/02/08 12:57:11;;;;;;;22.10;7.70;;;;;;;1.88;100.00;99677.09;5055753;28;20524;-78
2024/02/08 12:59:38;;;;;;;15.98;7.03;;;;;;;1.90;100.00;99679.59;5055349;28;20033;-78
2024/02/08 13:02:10;;;;;;;17.58;6.68;;;;;;;1.88;100.00;99681.47;5055355;28;20056;-76
2024/02/08 13:04:43;;;;;;;22.45;7.25;;;;;;;1.85;100.00;99686.94;5054908;28;20447;-75
2024/02/08 13:07:10;;;;;;;16.83;6.78;;;;;;;1.82;100.00;99687.16;5055435;28;20375;-79
2024/02/08 13:09:37;;;;;;;18.85;6.95;;;;;;;1.77;100.00;99680.47;5055187;28;20045;-77
2024/02/08 13:12:14;;;;;;;24.83;6.70;;;;;;;1.77;100.00;99661.28;5055132;28;20033;-78
2024/02/08 13:14:48;;;;;;;16.80;6.82;;;;;;;1.79;100.00;99642.81;5055743;28;20033;-77
2024/02/08 13:17:18;;;;;;;18.75;7.22;;;;;;;1.84;100.00;99633.66;5055651;28;20029;-77